createdAt,value
2023-04-27T00:00:10.977Z,6.10
2023-04-27T00:02:56.995Z,4.50
2023-04-27T00:05:42.629Z,4.83
2023-04-27T00:08:28.414Z,4.60
2023-04-27T00:11:13.490Z,9.17
2023-04-27T00:13:59.049Z,3.83
2023-04-27T00:16:44.397Z,3.77
2023-04-27T00:19:29.599Z,4.43
2023-04-27T00:22:14.944Z,3.70
2023-04-27T00:25:00.418Z,6.90
2023-04-27T00:27:45.579Z,5.20
2023-04-27T00:30:31.086Z,3.93
2023-04-27T00:33:17.258Z,4.70
2023-04-27T00:36:02.755Z,5.20
2023-04-27T00:38:48.125Z,5.37
2023-04-27T00:41:33.296Z,4.10
2023-04-27T00:44:25.467Z,4.70
2023-04-27T00:47:11.542Z,5.13
2023-04-27T00:49:56.910Z,3.70
2023-04-27T00:52:44.619Z,5.40
2023-04-27T00:55:30.004Z,4.60
2023-04-27T00:58:15.378Z,4.07
2023-04-27T01:01:01.032Z,6.30
2023-04-27T01:03:47.535Z,4.50
2023-04-27T01:06:33.004Z,5.47
2023-04-27T01:09:18.451Z,4.70
2023-04-27T01:12:03.865Z,5.40
2023-04-27T01:14:49.244Z,4.30
2023-04-27T01:17:34.560Z,6.97
2023-04-27T01:20:20.295Z,5.10
2023-04-27T01:23:07.090Z,5.50
2023-04-27T01:25:54.023Z,5.60
2023-04-27T01:28:39.226Z,4.83
2023-04-27T01:31:24.409Z,4.73
2023-04-27T01:34:09.667Z,4.70
2023-04-27T01:36:55.143Z,4.50
2023-04-27T01:39:40.246Z,4.30
2023-04-27T01:42:26.826Z,4.57
2023-04-27T01:45:11.986Z,5.33
2023-04-27T01:47:57.533Z,4.87
2023-04-27T01:50:42.649Z,5.07
2023-04-27T01:53:28.292Z,5.10
2023-04-27T01:56:13.740Z,5.43
2023-04-27T01:58:59.235Z,4.90
2023-04-27T02:01:44.485Z,7.33
2023-04-27T02:04:29.715Z,4.53
2023-04-27T02:07:15.811Z,5.37
2023-04-27T02:10:01.638Z,5.73
2023-04-27T02:12:46.798Z,4.93
2023-04-27T02:15:32.023Z,4.77
2023-04-27T02:18:18.208Z,4.07
2023-04-27T02:21:08.738Z,4.47
2023-04-27T02:23:55.239Z,4.47
2023-04-27T02:26:42.311Z,4.10
2023-04-27T02:29:31.260Z,4.23
2023-04-27T02:32:17.386Z,4.17
2023-04-27T02:35:03.630Z,4.23
2023-04-27T02:37:49.057Z,6.43
2023-04-27T02:40:34.292Z,5.90
2023-04-27T02:43:19.526Z,4.90
2023-04-27T02:46:05.084Z,4.33
2023-04-27T02:48:50.825Z,5.10
2023-04-27T02:51:36.011Z,5.03
2023-04-27T02:54:21.281Z,7.00
2023-04-27T02:57:06.611Z,5.73
2023-04-27T02:59:52.080Z,4.73
2023-04-27T03:02:37.562Z,5.23
2023-04-27T03:05:26.211Z,5.20
2023-04-27T03:08:11.479Z,5.53
2023-04-27T03:10:57.033Z,5.47
2023-04-27T03:13:42.270Z,5.93
2023-04-27T03:16:27.532Z,5.93
2023-04-27T03:19:12.998Z,6.20
2023-04-27T03:21:58.334Z,6.37
2023-04-27T03:24:43.704Z,6.13
2023-04-27T03:27:29.154Z,7.07
2023-04-27T03:30:14.965Z,6.03
2023-04-27T03:33:00.731Z,6.20
2023-04-27T03:35:58.244Z,6.80
2023-04-27T03:38:43.688Z,6.10
2023-04-27T03:41:31.252Z,5.43
2023-04-27T03:44:16.575Z,5.50
2023-04-27T03:47:02.217Z,6.47
2023-04-27T03:49:47.700Z,7.10
2023-04-27T03:52:32.881Z,7.93
2023-04-27T03:55:18.652Z,6.30
2023-04-27T03:58:04.092Z,7.17
2023-04-27T04:00:50.070Z,5.70
2023-04-27T04:03:35.402Z,5.53
2023-04-27T04:06:23.350Z,5.83
2023-04-27T04:09:08.545Z,5.70
2023-04-27T04:11:54.902Z,5.43
2023-04-27T04:14:40.292Z,7.10
2023-04-27T04:17:26.580Z,7.97
2023-04-27T04:20:12.099Z,5.50
2023-04-27T04:22:57.530Z,7.90
2023-04-27T04:25:42.651Z,4.90
2023-04-27T04:28:27.968Z,5.97
2023-04-27T04:31:13.554Z,5.00
2023-04-27T04:34:01.251Z,6.20
2023-04-27T04:36:46.635Z,5.27
2023-04-27T04:39:31.912Z,5.37
2023-04-27T04:42:17.422Z,4.47
2023-04-27T04:45:03.968Z,5.23
2023-04-27T04:47:49.698Z,6.33
2023-04-27T04:50:35.042Z,4.93
2023-04-27T04:53:20.335Z,4.87
2023-04-27T04:56:10.260Z,4.57
2023-04-27T04:58:55.395Z,4.63
2023-04-27T05:01:40.729Z,5.00
2023-04-27T05:04:25.899Z,5.73
2023-04-27T05:07:11.998Z,5.50
2023-04-27T05:09:59.270Z,7.27
2023-04-27T05:12:45.493Z,5.20
2023-04-27T05:15:31.080Z,5.30
2023-04-27T05:18:16.389Z,5.43
2023-04-27T05:21:02.658Z,7.03
2023-04-27T05:23:48.209Z,5.60
2023-04-27T05:26:33.806Z,5.87
2023-04-27T05:29:19.007Z,6.17
2023-04-27T05:32:04.651Z,4.77
2023-04-27T05:34:50.225Z,5.43
2023-04-27T05:37:35.570Z,6.17
2023-04-27T05:40:20.735Z,5.70
2023-04-27T05:43:06.309Z,5.60
2023-04-27T05:45:52.362Z,5.37
2023-04-27T05:48:37.435Z,7.17
2023-04-27T05:51:22.693Z,5.17
2023-04-27T05:54:08.372Z,6.73
2023-04-27T05:56:53.921Z,6.17
2023-04-27T05:59:39.012Z,6.03
2023-04-27T06:02:24.475Z,5.30
2023-04-27T06:05:10.235Z,5.83
2023-04-27T06:07:55.476Z,7.30
2023-04-27T06:10:40.717Z,4.60
2023-04-27T06:13:25.979Z,5.63
2023-04-27T06:16:11.205Z,4.53
2023-04-27T06:18:57.047Z,5.77
2023-04-27T06:21:42.186Z,5.43
2023-04-27T06:24:27.656Z,5.80
2023-04-27T06:27:12.791Z,6.43
2023-04-27T06:29:58.984Z,5.53
2023-04-27T06:32:44.265Z,6.80
2023-04-27T06:35:29.575Z,5.50
2023-04-27T06:38:14.846Z,4.77
2023-04-27T06:41:00.306Z,6.03
2023-04-27T06:43:45.706Z,4.53
2023-04-27T06:46:31.248Z,5.30
2023-04-27T06:49:16.481Z,4.60
2023-04-27T06:52:03.053Z,6.80
2023-04-27T06:54:48.668Z,4.30
2023-04-27T06:57:34.094Z,5.30
2023-04-27T07:00:19.595Z,6.97
2023-04-27T07:03:05.150Z,5.67
2023-04-27T07:05:50.556Z,3.93
2023-04-27T07:08:36.086Z,5.03
2023-04-27T07:11:21.515Z,6.03
2023-04-27T07:14:06.818Z,4.43
2023-04-27T07:16:51.869Z,5.50
2023-04-27T07:19:37.354Z,5.20
2023-04-27T07:22:22.494Z,3.93
2023-04-27T07:25:09.400Z,5.43
2023-04-27T07:27:54.886Z,5.93
2023-04-27T07:30:40.216Z,5.80
2023-04-27T07:33:25.472Z,5.77
2023-04-27T07:36:10.854Z,5.20
2023-04-27T07:38:56.071Z,4.57
2023-04-27T07:41:41.327Z,5.18
2023-04-27T07:44:29.215Z,5.77
2023-04-27T07:47:14.737Z,5.77
2023-04-27T07:50:00.157Z,5.43
2023-04-27T07:52:45.426Z,7.03
2023-04-27T07:55:30.891Z,4.95
2023-04-27T07:58:16.550Z,4.37
2023-04-27T08:01:01.754Z,5.68
2023-04-27T08:03:47.125Z,7.32
2023-04-27T08:06:33.328Z,6.05
2023-04-27T08:09:19.174Z,4.70
2023-04-27T08:12:04.640Z,5.30
2023-04-27T08:14:49.967Z,8.98
2023-04-27T08:17:35.206Z,5.90
2023-04-27T08:20:20.890Z,3.85
2023-04-27T08:23:06.298Z,5.05
2023-04-27T08:25:51.832Z,4.38
2023-04-27T08:28:36.986Z,4.13
2023-04-27T08:31:22.533Z,7.45
2023-04-27T08:34:07.758Z,5.15
2023-04-27T08:36:53.524Z,5.85
2023-04-27T08:39:39.068Z,7.03
2023-04-27T08:42:24.491Z,4.68
2023-04-27T08:45:09.969Z,6.68
2023-04-27T08:47:55.288Z,5.18
2023-04-27T08:50:44.123Z,5.82
2023-04-27T08:53:29.369Z,4.93
2023-04-27T08:56:14.917Z,5.15
2023-04-27T08:59:00.902Z,4.07
2023-04-27T09:01:47.730Z,5.60
2023-04-27T09:04:42.272Z,4.65
2023-04-27T09:07:28.646Z,6.00
2023-04-27T09:10:14.239Z,4.32
2023-04-27T09:13:00.781Z,5.38
2023-04-27T09:15:51.646Z,6.30
2023-04-27T09:18:37.694Z,4.97
2023-04-27T09:21:28.187Z,7.03
2023-04-27T09:24:13.908Z,6.22
2023-04-27T09:27:00.984Z,6.60
2023-04-27T09:29:46.441Z,5.78
2023-04-27T09:32:32.047Z,4.93
2023-04-27T09:35:23.328Z,7.50
2023-04-27T09:44:37.929Z,4.95
2023-04-27T09:47:23.870Z,5.90
2023-04-27T09:50:12.776Z,7.95
2023-04-27T09:52:58.156Z,5.07
2023-04-27T09:55:51.640Z,4.95
2023-04-27T09:59:05.697Z,5.05
2023-04-27T10:02:09.960Z,5.97
2023-04-27T10:05:21.671Z,4.78
2023-04-27T10:08:07.686Z,5.22
2023-04-27T10:10:53.619Z,6.40
2023-04-27T10:13:39.560Z,6.45
2023-04-27T10:16:25.314Z,4.82
2023-04-27T10:19:11.109Z,6.63
2023-04-27T10:21:58.542Z,7.30
2023-04-27T10:24:49.475Z,5.57
2023-04-27T10:27:39.494Z,6.55
2023-04-27T10:30:27.235Z,6.65
2023-04-27T10:33:16.791Z,5.93
2023-04-27T10:36:02.349Z,7.38
2023-04-27T10:38:56.415Z,6.05
2023-04-27T10:41:50.316Z,6.28
2023-04-27T10:44:37.263Z,6.05
2023-04-27T10:47:22.892Z,5.57
2023-04-27T10:50:10.886Z,4.80
2023-04-27T10:53:01.115Z,7.38
2023-04-27T10:55:46.813Z,6.63
2023-04-27T10:58:48.247Z,6.10
2023-04-27T11:01:35.586Z,6.80
2023-04-27T11:04:21.046Z,7.28
2023-04-27T11:07:10.245Z,6.75
2023-04-27T11:09:55.860Z,6.15
2023-04-27T11:12:41.263Z,5.72
2023-04-27T11:15:26.482Z,5.72
2023-04-27T11:18:11.685Z,5.57
2023-04-27T11:21:14.585Z,5.95
2023-04-27T11:24:07.003Z,4.45
2023-04-27T11:26:52.507Z,5.10
2023-04-27T11:29:38.571Z,7.13
2023-04-27T11:32:24.088Z,6.30
2023-04-27T11:35:09.563Z,4.60
2023-04-27T11:37:58.319Z,6.43
2023-04-27T11:40:44.452Z,7.03
2023-04-27T11:43:30.268Z,6.35
2023-04-27T11:46:15.725Z,5.05
2023-04-27T11:49:02.246Z,5.43
2023-04-27T11:51:47.967Z,8.35
2023-04-27T11:54:33.023Z,7.28
2023-04-27T11:57:18.926Z,5.90
2023-04-27T12:00:05.724Z,6.55
2023-04-27T12:02:58.635Z,6.95
2023-04-27T12:05:51.379Z,4.53
2023-04-27T12:08:36.622Z,6.78
2023-04-27T12:11:21.638Z,5.55
2023-04-27T12:14:06.954Z,5.60
2023-04-27T12:16:52.516Z,5.93
2023-04-27T12:19:37.916Z,5.10
2023-04-27T12:22:23.161Z,4.93
2023-04-27T12:25:08.478Z,5.82
2023-04-27T12:27:53.848Z,6.03
2023-04-27T12:30:39.413Z,6.68
2023-04-27T12:33:24.949Z,4.43
2023-04-27T12:36:10.286Z,6.13
2023-04-27T12:39:00.295Z,5.88
2023-04-27T12:41:47.430Z,7.68
2023-04-27T12:44:32.843Z,6.30
2023-04-27T12:47:40.573Z,5.57
2023-04-27T12:50:23.968Z,6.47
2023-04-27T12:53:09.192Z,5.68
2023-04-27T12:55:54.452Z,5.50
2023-04-27T12:58:39.636Z,5.97
2023-04-27T13:01:26.427Z,6.40
2023-04-27T13:04:20.444Z,5.63
2023-04-27T13:07:06.293Z,6.20
2023-04-27T13:09:51.567Z,5.22
2023-04-27T13:12:36.768Z,4.95
2023-04-27T13:15:22.078Z,4.65
2023-04-27T13:18:07.262Z,4.15
2023-04-27T13:20:53.107Z,6.53
2023-04-27T13:23:38.590Z,7.20
2023-04-27T13:26:23.625Z,5.25
2023-04-27T13:29:08.943Z,6.88
2023-04-27T13:31:54.016Z,5.13
2023-04-27T13:34:39.200Z,4.47
2023-04-27T13:37:26.988Z,5.40
2023-04-27T13:40:12.820Z,8.20
2023-04-27T13:42:58.375Z,5.03
2023-04-27T13:45:43.594Z,6.25
2023-04-27T13:48:29.662Z,6.18
2023-04-27T13:51:15.104Z,4.65
2023-04-27T13:54:00.532Z,6.80
2023-04-27T13:56:46.282Z,5.13
2023-04-27T13:59:31.448Z,6.72
2023-04-27T14:02:16.785Z,8.55
2023-04-27T14:05:02.094Z,6.60
2023-04-27T14:07:47.444Z,5.95
2023-04-27T14:10:33.371Z,4.13
2023-04-27T14:13:20.114Z,6.75
2023-04-27T14:16:06.887Z,6.15
2023-04-27T14:18:52.766Z,5.03
2023-04-27T14:21:38.638Z,5.47
2023-04-27T14:24:24.195Z,5.90
2023-04-27T14:27:09.648Z,4.20
2023-04-27T14:29:55.064Z,4.65
2023-04-27T14:32:40.384Z,6.63
2023-04-27T14:35:25.502Z,6.32
2023-04-27T14:38:10.843Z,6.72
2023-04-27T14:40:56.337Z,4.68
2023-04-27T14:43:41.824Z,4.93
2023-04-27T14:46:27.405Z,5.25
2023-04-27T14:49:12.771Z,4.45
2023-04-27T14:51:58.425Z,5.05
2023-04-27T14:54:43.638Z,7.00
2023-04-27T14:57:29.002Z,3.92
2023-04-27T15:00:15.038Z,5.32
2023-04-27T15:03:00.550Z,5.53
2023-04-27T15:05:45.860Z,6.38
2023-04-27T15:08:34.281Z,5.20
2023-04-27T15:11:20.008Z,6.38
2023-04-27T15:14:05.257Z,5.57
2023-04-27T15:16:51.241Z,7.95
2023-04-27T15:19:37.086Z,8.45
2023-04-27T15:22:22.971Z,8.77
2023-04-27T15:25:09.033Z,7.65
2023-04-27T15:27:54.729Z,5.90
2023-04-27T15:30:39.912Z,4.65
2023-04-27T15:33:25.569Z,4.60
2023-04-27T15:36:11.491Z,6.10
2023-04-27T15:38:57.494Z,6.22
2023-04-27T15:41:43.283Z,9.32
2023-04-27T15:44:28.752Z,7.88
2023-04-27T15:47:14.755Z,6.40
2023-04-27T15:50:00.298Z,6.28
2023-04-27T15:52:45.806Z,6.10
2023-04-27T15:55:32.158Z,6.50
2023-04-27T15:58:17.394Z,5.70
2023-04-27T16:01:03.044Z,5.53
2023-04-27T16:03:48.553Z,9.02
2023-04-27T16:06:35.042Z,7.75
2023-04-27T16:09:20.586Z,5.90
2023-04-27T16:12:05.890Z,7.03
2023-04-27T16:14:51.234Z,6.47
2023-04-27T16:17:36.914Z,6.63
2023-04-27T16:20:22.026Z,6.72
2023-04-27T16:23:07.533Z,7.93
2023-04-27T16:25:52.963Z,6.68
2023-04-27T16:28:38.325Z,7.45
2023-04-27T16:31:23.965Z,9.80
2023-04-27T16:34:09.052Z,5.35
2023-04-27T16:36:54.965Z,5.97
2023-04-27T16:39:40.229Z,6.75
2023-04-27T16:42:25.902Z,12.65
2023-04-27T16:45:12.690Z,7.38
2023-04-27T16:47:58.263Z,7.53
2023-04-27T16:50:43.458Z,8.57
2023-04-27T16:53:28.602Z,6.00
2023-04-27T16:56:14.084Z,6.15
2023-04-27T16:58:59.694Z,6.43
2023-04-27T17:01:45.268Z,6.45
2023-04-27T17:04:30.605Z,7.43
2023-04-27T17:07:15.857Z,7.85
2023-04-27T17:10:01.372Z,5.90
2023-04-27T17:12:46.510Z,7.20
2023-04-27T17:15:31.939Z,6.40
2023-04-27T17:18:17.635Z,10.15
2023-04-27T17:21:03.244Z,8.90
2023-04-27T17:23:48.577Z,5.55
2023-04-27T17:26:34.004Z,6.03
2023-04-27T17:29:19.207Z,8.82
2023-04-27T17:32:05.350Z,5.43
2023-04-27T17:34:50.528Z,7.78
2023-04-27T17:37:36.060Z,7.68
2023-04-27T17:40:21.451Z,7.65
2023-04-27T17:43:08.725Z,8.07
2023-04-27T17:45:54.143Z,4.47
2023-04-27T17:48:39.342Z,5.53
2023-04-27T17:51:24.654Z,5.40
2023-04-27T17:54:09.919Z,5.38
2023-04-27T17:56:55.287Z,7.88
2023-04-27T17:59:41.179Z,5.88
2023-04-27T18:02:26.519Z,7.57
2023-04-27T18:05:12.144Z,6.50
2023-04-27T18:07:57.586Z,5.57
2023-04-27T18:10:44.065Z,7.72
2023-04-27T18:13:29.698Z,5.72
2023-04-27T18:16:14.955Z,5.30
2023-04-27T18:19:04.614Z,7.65
2023-04-27T18:21:50.241Z,5.93
2023-04-27T18:24:36.956Z,8.23
2023-04-27T18:27:22.502Z,6.15
2023-04-27T18:30:09.994Z,4.75
2023-04-27T18:32:57.145Z,7.35
2023-04-27T18:35:42.290Z,5.93
2023-04-27T18:38:27.571Z,6.88
2023-04-27T18:41:15.962Z,6.90
2023-04-27T18:44:05.757Z,6.50
2023-04-27T18:46:51.140Z,5.90
2023-04-27T18:49:36.376Z,5.43
2023-04-27T18:52:21.688Z,6.65
2023-04-27T18:55:09.764Z,6.75
2023-04-27T18:57:55.302Z,6.45
2023-04-27T19:00:41.041Z,5.82
2023-04-27T19:03:27.501Z,6.45
2023-04-27T19:06:15.022Z,7.28
2023-04-27T19:09:02.815Z,6.78
2023-04-27T19:11:55.972Z,5.78
2023-04-27T19:14:45.853Z,5.55
2023-04-27T19:17:31.211Z,7.75
2023-04-27T19:20:16.596Z,6.45
2023-04-27T19:23:03.980Z,7.07
2023-04-27T19:25:49.768Z,7.63
2023-04-27T19:28:35.732Z,5.88
2023-04-27T19:31:21.276Z,7.93
2023-04-27T19:34:07.001Z,6.32
2023-04-27T19:36:52.190Z,6.90
2023-04-27T19:39:38.046Z,7.30
2023-04-27T19:42:23.467Z,6.80
2023-04-27T19:45:09.161Z,8.48
2023-04-27T19:47:54.380Z,9.43
2023-04-27T19:50:43.478Z,8.45
2023-04-27T19:53:28.886Z,7.88
2023-04-27T19:56:14.370Z,7.95
2023-04-27T19:59:00.034Z,8.32
2023-04-27T20:01:45.975Z,7.28
2023-04-27T20:04:31.381Z,7.90
2023-04-27T20:07:19.986Z,8.03
2023-04-27T20:10:08.097Z,7.38
2023-04-27T20:12:57.213Z,8.53
2023-04-27T20:15:43.938Z,9.15
2023-04-27T20:18:29.429Z,8.50
2023-04-27T20:21:14.694Z,7.70
2023-04-27T20:24:00.300Z,8.32
2023-04-27T20:26:45.516Z,7.50
2023-04-27T20:29:32.470Z,8.57
2023-04-27T20:32:17.733Z,9.38
2023-04-27T20:35:04.388Z,11.57
2023-04-27T20:37:49.795Z,7.00
2023-04-27T20:40:35.166Z,10.67
2023-04-27T20:43:20.644Z,9.05
2023-04-27T20:46:11.586Z,10.53
2023-04-27T20:48:57.189Z,7.95
2023-04-27T20:51:42.524Z,8.80
2023-04-27T20:54:28.123Z,7.78
2023-04-27T20:57:13.430Z,9.93
2023-04-27T20:59:58.927Z,8.73
2023-04-27T21:02:44.522Z,9.57
2023-04-27T21:05:31.559Z,9.97
2023-04-27T21:08:16.966Z,8.10
2023-04-27T21:11:02.302Z,9.07
2023-04-27T21:13:47.592Z,9.63
2023-04-27T21:16:32.772Z,9.70
2023-04-27T21:19:17.857Z,9.43
2023-04-27T21:22:03.392Z,8.80
2023-04-27T21:24:48.870Z,9.57
2023-04-27T21:27:34.180Z,9.13
2023-04-27T21:30:19.942Z,9.43
2023-04-27T21:33:05.626Z,11.03
2023-04-27T21:35:51.123Z,10.37
2023-04-27T21:38:36.524Z,9.37
2023-04-27T21:41:22.176Z,9.63
2023-04-27T21:44:07.290Z,8.67
2023-04-27T21:46:52.719Z,11.10
2023-04-27T21:49:38.115Z,10.53
2023-04-27T21:52:23.708Z,8.33
2023-04-27T21:55:09.211Z,9.43
2023-04-27T21:57:54.444Z,7.80
2023-04-27T22:00:39.595Z,10.23
2023-04-27T22:03:24.962Z,9.27
2023-04-27T22:06:10.707Z,9.63
2023-04-27T22:08:56.144Z,7.27
2023-04-27T22:11:41.127Z,9.73
2023-04-27T22:14:26.446Z,10.83
2023-04-27T22:17:11.593Z,8.17
2023-04-27T22:19:57.323Z,9.27
2023-04-27T22:22:42.948Z,10.53
2023-04-27T22:25:28.311Z,7.40
2023-04-27T22:28:13.868Z,7.73
2023-04-27T22:31:00.340Z,8.03
2023-04-27T22:33:45.450Z,8.63
2023-04-27T22:36:31.021Z,8.13
2023-04-27T22:39:16.534Z,10.27
2023-04-27T22:42:02.116Z,9.03
2023-04-27T22:44:47.366Z,9.00
2023-04-27T22:47:32.546Z,9.20
2023-04-27T22:50:18.253Z,9.30
2023-04-27T22:53:03.676Z,9.63
2023-04-27T22:55:49.090Z,10.70
2023-04-27T22:58:34.362Z,9.70
2023-04-27T23:01:19.907Z,8.83
2023-04-27T23:04:05.802Z,8.83
2023-04-27T23:06:51.421Z,11.87
2023-04-27T23:09:37.175Z,8.07
2023-04-27T23:12:22.583Z,10.53
2023-04-27T23:15:08.314Z,9.57
2023-04-27T23:17:53.525Z,9.10
2023-04-27T23:20:38.705Z,9.13
2023-04-27T23:23:23.957Z,10.30
2023-04-27T23:26:16.126Z,8.57
2023-04-27T23:29:01.510Z,8.13
2023-04-27T23:31:46.861Z,9.13
2023-04-27T23:34:32.072Z,7.70
2023-04-27T23:37:17.507Z,8.33
2023-04-27T23:40:03.027Z,13.20
2023-04-27T23:42:49.648Z,9.17
2023-04-27T23:45:36.558Z,10.27
2023-04-27T23:48:22.008Z,10.87
2023-04-27T23:51:07.127Z,7.97
2023-04-27T23:53:52.528Z,9.77
2023-04-27T23:56:37.837Z,7.80
2023-04-27T23:59:23.181Z,8.83
